Warning: Javascript must be enabled to use all the features on this page!


Page Loading - Please Wait...

Click to hideNews Bulletins

Peak Streamflow for the Nation

USGS 01520500 TIOGA RIVER AT LINDLEY NY

Steuben County, New York
Hydrologic Unit Code 02050104
Latitude  42°01'43", Longitude  77°07'56" NAD83
Drainage area 771  square miles
Gage datum 963.91 feet above NAVD88
Output formats
Table
Graph
Tab-separated file
peakfq (watstore) format
Reselect output format
Water
Year
Date Gage
Height
(feet)
Stream-
flow
(cfs)
1930 1930-03-08 10.30 8,910
1931 1931-05-25 9.50 7,440
1932 1932-04-01 13.80 15,800
1933 1933-08-24 13.80 15,800
1934 1934-03-04 12.30 12,800
1935 1935-08-11 11.102 10,400
1936 1936-03-12 19.20 41,200
1937 1937-01-22 12.63 13,600
1938 1937-11-13 17.13 27,200
1939 1939-02-20 16.20 23,000
1940 1940-04-01 18.78 36,600
1941 1941-04-05 14.19 16,800
1942 1942-03-09 17.46 30,800
1943 1942-12-30 17.63 31,800
1944 1944-05-07 13.672 15,600
1945 1945-03-04 16.52 25,600
1946 1946-05-28 22.87 75,000
1947 1947-04-05 18.48 37,400
1948 1948-03-22 18.50 37,500
1949 1948-12-30 11.28 9,880
1950 1950-03-29 17.32 29,900
1951 1950-11-26 19.90 48,2002
1952 1952-03-11 17.71 32,300
1953 1952-12-11 16.12 23,600
1954 1954-03-02 16.51 25,600
1955 1955-03-04 12.44 12,100
1956 1955-10-14 20.18 50,400
1957 1957-04-06 15.28 19,900
1958 1958-04-07 14.71 18,000
1959 1959-01-22 17.33 30,000
1960 1960-03-31 17.32 29,900
1961 1961-02-26 17.48 30,900
1962 1962-03-31 14.56 17,600
1963 1963-03-17 14.192 16,500
1964 1964-03-05 18.48 37,400
1965 1965-02-08 9.312 6,400
1966 1966-02-14 13.99 15,900
1967 1967-03-29 12.39 12,000
1968 1968-03-23 13.48 14,500
1969 1969-04-05 13.13 13,600
1970 1970-02-03 14.89 18,600
1971 1971-03-16 15.21 19,700
1972 1972-06-23 26.27 128,0009
1973 1973-03-17 15.15 19,500
1974 1973-12-21 12.93 13,100
1975 1975-09-26 23.37 80,600
1976 1976-06-20 16.54 25,700
1977 1977-09-25 13.142 12,500
1978 1978-01-09 16.01 23,300
1979 1979-03-05 14.051 16,0002
1980 1979-11-27 12.41 11,9006
1981 1981-02-21 10.63 8,2906
1982 1982-06-08 12.11 11,3006
1983 1983-06-28 10.90 8,8106
1984 1984-04-07 12.14 10,9006
1985 1985-02-25 9.81 6,3906
1986 1986-03-15 11.94 10,5006
1987 1987-04-06 11.29 9,0006
1988 1988-05-20 11.27 8,9606
1989 1989-05-11 11.75 10,0006
1990 1990-04-11 10.85 8,1606
1991 1990-10-23 13.37 13,9006
1992 1992-03-27 11.72 9,9806
1993 1993-04-04 12.80 12,5006
1994 1994-08-18 13.38 13,9006
1995 1995-01-20 12.03 10,7006
1996 1996-01-23 13.18 13,4006
1997 1996-11-08 13.26 13,6006
1998 1998-05-12 12.34 10,8006
1999 1999-01-24 10.54 6,8906
2000 2000-02-28 11.40 8,4806
2001 2001-04-08 11.89 9,6206
2002 2002-06-08 12.60 10,4006
2003 2003-03-24 12.66 10,4006
2004 2004-09-17 13.81 13,9006
2005 2005-04-05 12.99 11,3006
2006 2005-11-30 12.33 9,9206
2007 2007-03-15 12.21 9,7306
2008 2008-02-06 12.18 9,6806
2009 2009-03-09 11.49 8,6006
2010 2010-01-27 12.19 9,6606
2011 2011-04-29 12.56 10,3006
2012 2011-10-20 11.20 8,0306
2013 2013-01-31 11.33 8,2306
2014 2014-05-16 11.04 7,7806
2015 2015-04-08 11.00 7,7106
2016 2016-02-25 10.77 7,3606
2017 2017-05-07 10.80 7,4106
2018 2018-09-19 11.61 8,6906
2019 2018-12-22 10.98 7,6806
2020 2020-05-01 11.56 8,6106
2021 2021-07-18 12.88 10,9006
?
  Peak Gage-Height Qualification Codes.
?
  Peak Streamflow Qualification Codes.